sensor_id;sensor_type;location;lat;lon;timestamp;P1;durP1;ratioP1;P2;durP2;ratioP2
5157;SDS011;2598;52.364;9.772;2023-05-10T00:02:09;5.03;;;2.60;;
5157;SDS011;2598;52.364;9.772;2023-05-10T00:04:35;9.43;;;2.50;;
5157;SDS011;2598;52.364;9.772;2023-05-10T00:07:01;6.50;;;2.70;;
5157;SDS011;2598;52.364;9.772;2023-05-10T00:09:27;14.87;;;3.13;;
5157;SDS011;2598;52.364;9.772;2023-05-10T00:11:53;6.27;;;2.77;;
5157;SDS011;2598;52.364;9.772;2023-05-10T00:14:19;8.70;;;2.30;;
5157;SDS011;2598;52.364;9.772;2023-05-10T00:16:45;6.63;;;2.87;;
5157;SDS011;2598;52.364;9.772;2023-05-10T00:19:11;7.80;;;2.63;;
5157;SDS011;2598;52.364;9.772;2023-05-10T00:21:37;5.97;;;2.80;;
5157;SDS011;2598;52.364;9.772;2023-05-10T00:24:03;5.33;;;2.50;;
5157;SDS011;2598;52.364;9.772;2023-05-10T00:26:29;5.57;;;3.10;;
5157;SDS011;2598;52.364;9.772;2023-05-10T00:28:55;8.43;;;3.37;;
5157;SDS011;2598;52.364;9.772;2023-05-10T00:31:21;6.10;;;2.70;;
5157;SDS011;2598;52.364;9.772;2023-05-10T00:33:48;9.00;;;2.97;;
5157;SDS011;2598;52.364;9.772;2023-05-10T00:36:13;5.30;;;2.80;;
5157;SDS011;2598;52.364;9.772;2023-05-10T00:38:39;7.77;;;2.83;;
5157;SDS011;2598;52.364;9.772;2023-05-10T00:41:05;5.93;;;3.00;;
5157;SDS011;2598;52.364;9.772;2023-05-10T00:43:31;5.80;;;3.03;;
5157;SDS011;2598;52.364;9.772;2023-05-10T00:45:57;6.57;;;3.20;;
5157;SDS011;2598;52.364;9.772;2023-05-10T00:48:23;6.37;;;2.90;;
5157;SDS011;2598;52.364;9.772;2023-05-10T00:50:50;6.37;;;3.03;;
5157;SDS011;2598;52.364;9.772;2023-05-10T00:53:16;6.33;;;3.07;;
5157;SDS011;2598;52.364;9.772;2023-05-10T00:55:42;5.43;;;2.90;;
5157;SDS011;2598;52.364;9.772;2023-05-10T00:58:08;7.77;;;3.87;;
5157;SDS011;2598;52.364;9.772;2023-05-10T01:00:34;7.10;;;2.80;;
5157;SDS011;2598;52.364;9.772;2023-05-10T01:03:01;8.53;;;3.03;;
5157;SDS011;2598;52.364;9.772;2023-05-10T01:05:27;6.07;;;3.00;;
5157;SDS011;2598;52.364;9.772;2023-05-10T01:07:53;8.23;;;3.10;;
5157;SDS011;2598;52.364;9.772;2023-05-10T01:10:19;7.03;;;3.33;;
5157;SDS011;2598;52.364;9.772;2023-05-10T01:12:45;12.57;;;3.07;;
5157;SDS011;2598;52.364;9.772;2023-05-10T01:15:12;9.03;;;3.27;;
5157;SDS011;2598;52.364;9.772;2023-05-10T01:17:39;7.30;;;2.63;;
5157;SDS011;2598;52.364;9.772;2023-05-10T01:20:06;7.43;;;3.60;;
5157;SDS011;2598;52.364;9.772;2023-05-10T01:25:19;6.27;;;3.27;;
5157;SDS011;2598;52.364;9.772;2023-05-10T01:27:53;5.77;;;3.10;;
5157;SDS011;2598;52.364;9.772;2023-05-10T01:30:49;7.87;;;3.43;;
5157;SDS011;2598;52.364;9.772;2023-05-10T01:33:20;11.13;;;3.40;;
5157;SDS011;2598;52.364;9.772;2023-05-10T01:35:49;9.00;;;3.80;;
5157;SDS011;2598;52.364;9.772;2023-05-10T01:43:22;5.60;;;3.33;;
5157;SDS011;2598;52.364;9.772;2023-05-10T01:48:20;7.10;;;3.43;;
5157;SDS011;2598;52.364;9.772;2023-05-10T01:50:47;6.40;;;3.90;;
5157;SDS011;2598;52.364;9.772;2023-05-10T01:53:14;10.87;;;4.40;;
5157;SDS011;2598;52.364;9.772;2023-05-10T01:55:45;8.67;;;3.57;;
5157;SDS011;2598;52.364;9.772;2023-05-10T01:58:13;8.33;;;4.20;;
5157;SDS011;2598;52.364;9.772;2023-05-10T02:00:43;11.77;;;4.57;;
5157;SDS011;2598;52.364;9.772;2023-05-10T02:03:10;8.67;;;4.30;;
5157;SDS011;2598;52.364;9.772;2023-05-10T02:05:37;8.33;;;4.33;;
5157;SDS011;2598;52.364;9.772;2023-05-10T02:08:05;8.77;;;4.37;;
5157;SDS011;2598;52.364;9.772;2023-05-10T02:10:32;8.40;;;4.07;;
5157;SDS011;2598;52.364;9.772;2023-05-10T02:12:58;9.37;;;4.33;;
5157;SDS011;2598;52.364;9.772;2023-05-10T02:15:25;8.20;;;4.40;;
5157;SDS011;2598;52.364;9.772;2023-05-10T02:17:51;12.20;;;4.73;;
5157;SDS011;2598;52.364;9.772;2023-05-10T02:20:18;8.20;;;4.20;;
5157;SDS011;2598;52.364;9.772;2023-05-10T02:22:44;7.77;;;3.70;;
5157;SDS011;2598;52.364;9.772;2023-05-10T02:25:11;7.60;;;3.73;;
5157;SDS011;2598;52.364;9.772;2023-05-10T02:27:37;8.03;;;4.50;;
5157;SDS011;2598;52.364;9.772;2023-05-10T02:30:04;10.13;;;4.17;;
5157;SDS011;2598;52.364;9.772;2023-05-10T02:32:31;8.00;;;4.60;;
5157;SDS011;2598;52.364;9.772;2023-05-10T02:34:57;13.03;;;4.60;;
5157;SDS011;2598;52.364;9.772;2023-05-10T02:37:24;8.67;;;5.00;;
5157;SDS011;2598;52.364;9.772;2023-05-10T02:39:51;12.77;;;4.70;;
5157;SDS011;2598;52.364;9.772;2023-05-10T02:42:18;9.73;;;4.60;;
5157;SDS011;2598;52.364;9.772;2023-05-10T02:44:45;14.13;;;5.30;;
5157;SDS011;2598;52.364;9.772;2023-05-10T02:47:13;8.13;;;4.23;;
5157;SDS011;2598;52.364;9.772;2023-05-10T02:49:39;8.17;;;4.23;;
5157;SDS011;2598;52.364;9.772;2023-05-10T02:52:05;8.10;;;4.60;;
5157;SDS011;2598;52.364;9.772;2023-05-10T02:54:33;7.67;;;4.70;;
5157;SDS011;2598;52.364;9.772;2023-05-10T02:57:00;7.80;;;4.47;;
5157;SDS011;2598;52.364;9.772;2023-05-10T02:59:30;8.97;;;4.90;;
5157;SDS011;2598;52.364;9.772;2023-05-10T03:01:57;12.00;;;5.03;;
5157;SDS011;2598;52.364;9.772;2023-05-10T03:04:24;8.20;;;5.13;;
5157;SDS011;2598;52.364;9.772;2023-05-10T03:06:50;15.20;;;5.47;;
5157;SDS011;2598;52.364;9.772;2023-05-10T03:09:16;9.00;;;4.90;;
5157;SDS011;2598;52.364;9.772;2023-05-10T03:14:21;9.97;;;5.00;;
5157;SDS011;2598;52.364;9.772;2023-05-10T03:17:00;11.10;;;5.00;;
5157;SDS011;2598;52.364;9.772;2023-05-10T03:19:29;13.10;;;5.10;;
5157;SDS011;2598;52.364;9.772;2023-05-10T03:21:56;10.47;;;4.63;;
5157;SDS011;2598;52.364;9.772;2023-05-10T03:24:25;10.00;;;4.67;;
5157;SDS011;2598;52.364;9.772;2023-05-10T03:26:53;13.30;;;5.60;;
5157;SDS011;2598;52.364;9.772;2023-05-10T03:29:21;11.63;;;4.73;;
5157;SDS011;2598;52.364;9.772;2023-05-10T03:31:48;11.90;;;5.47;;
5157;SDS011;2598;52.364;9.772;2023-05-10T03:34:14;9.43;;;4.80;;
5157;SDS011;2598;52.364;9.772;2023-05-10T03:36:42;10.60;;;4.77;;
5157;SDS011;2598;52.364;9.772;2023-05-10T03:39:08;9.23;;;5.07;;
5157;SDS011;2598;52.364;9.772;2023-05-10T03:41:35;8.27;;;5.90;;
5157;SDS011;2598;52.364;9.772;2023-05-10T03:44:00;9.27;;;5.53;;
5157;SDS011;2598;52.364;9.772;2023-05-10T03:46:26;10.30;;;5.40;;
5157;SDS011;2598;52.364;9.772;2023-05-10T03:48:52;10.63;;;5.50;;
5157;SDS011;2598;52.364;9.772;2023-05-10T03:51:18;15.23;;;6.20;;
5157;SDS011;2598;52.364;9.772;2023-05-10T03:53:45;9.27;;;5.67;;
5157;SDS011;2598;52.364;9.772;2023-05-10T03:56:11;7.87;;;5.10;;
5157;SDS011;2598;52.364;9.772;2023-05-10T03:58:37;12.83;;;5.80;;
5157;SDS011;2598;52.364;9.772;2023-05-10T04:01:03;9.60;;;5.50;;
5157;SDS011;2598;52.364;9.772;2023-05-10T04:03:29;13.23;;;5.80;;
5157;SDS011;2598;52.364;9.772;2023-05-10T04:05:59;9.83;;;6.20;;
5157;SDS011;2598;52.364;9.772;2023-05-10T04:08:25;12.93;;;6.10;;
5157;SDS011;2598;52.364;9.772;2023-05-10T04:10:51;13.70;;;6.37;;
5157;SDS011;2598;52.364;9.772;2023-05-10T04:13:17;10.73;;;5.80;;
5157;SDS011;2598;52.364;9.772;2023-05-10T04:15:43;12.03;;;5.70;;
5157;SDS011;2598;52.364;9.772;2023-05-10T04:18:09;9.83;;;6.30;;
5157;SDS011;2598;52.364;9.772;2023-05-10T04:20:36;8.10;;;5.53;;
5157;SDS011;2598;52.364;9.772;2023-05-10T04:23:02;15.03;;;5.83;;
5157;SDS011;2598;52.364;9.772;2023-05-10T04:25:28;9.50;;;6.33;;
5157;SDS011;2598;52.364;9.772;2023-05-10T04:27:54;11.20;;;6.37;;
5157;SDS011;2598;52.364;9.772;2023-05-10T04:30:20;11.13;;;6.07;;
5157;SDS011;2598;52.364;9.772;2023-05-10T04:32:46;10.90;;;5.70;;
5157;SDS011;2598;52.364;9.772;2023-05-10T04:35:12;12.47;;;6.20;;
5157;SDS011;2598;52.364;9.772;2023-05-10T04:37:39;8.57;;;5.70;;
5157;SDS011;2598;52.364;9.772;2023-05-10T04:40:05;12.60;;;5.97;;
5157;SDS011;2598;52.364;9.772;2023-05-10T04:42:31;13.10;;;6.33;;
5157;SDS011;2598;52.364;9.772;2023-05-10T04:44:58;9.50;;;5.53;;
5157;SDS011;2598;52.364;9.772;2023-05-10T04:47:23;9.87;;;5.70;;
5157;SDS011;2598;52.364;9.772;2023-05-10T04:49:49;11.07;;;6.07;;
5157;SDS011;2598;52.364;9.772;2023-05-10T04:52:15;13.57;;;5.87;;
5157;SDS011;2598;52.364;9.772;2023-05-10T04:54:42;9.80;;;6.30;;
5157;SDS011;2598;52.364;9.772;2023-05-10T04:57:08;10.87;;;5.80;;
5157;SDS011;2598;52.364;9.772;2023-05-10T04:59:35;12.90;;;6.60;;
5157;SDS011;2598;52.364;9.772;2023-05-10T05:02:02;11.90;;;6.03;;
5157;SDS011;2598;52.364;9.772;2023-05-10T05:04:28;11.83;;;6.80;;
5157;SDS011;2598;52.364;9.772;2023-05-10T05:06:55;10.47;;;6.83;;
5157;SDS011;2598;52.364;9.772;2023-05-10T05:09:21;10.73;;;6.80;;
5157;SDS011;2598;52.364;9.772;2023-05-10T05:11:47;11.90;;;6.07;;
5157;SDS011;2598;52.364;9.772;2023-05-10T05:14:13;10.67;;;6.20;;
5157;SDS011;2598;52.364;9.772;2023-05-10T05:16:39;10.80;;;6.43;;
5157;SDS011;2598;52.364;9.772;2023-05-10T05:19:05;14.30;;;6.50;;
5157;SDS011;2598;52.364;9.772;2023-05-10T05:21:31;10.30;;;6.23;;
5157;SDS011;2598;52.364;9.772;2023-05-10T05:23:57;12.57;;;7.10;;
5157;SDS011;2598;52.364;9.772;2023-05-10T05:26:23;12.67;;;6.63;;
5157;SDS011;2598;52.364;9.772;2023-05-10T05:28:49;10.93;;;7.30;;
5157;SDS011;2598;52.364;9.772;2023-05-10T05:31:18;11.93;;;6.17;;
5157;SDS011;2598;52.364;9.772;2023-05-10T05:33:44;11.90;;;6.43;;
5157;SDS011;2598;52.364;9.772;2023-05-10T05:36:10;8.90;;;5.40;;
5157;SDS011;2598;52.364;9.772;2023-05-10T05:38:36;10.00;;;5.80;;
5157;SDS011;2598;52.364;9.772;2023-05-10T05:41:02;8.87;;;5.07;;
5157;SDS011;2598;52.364;9.772;2023-05-10T05:43:28;9.40;;;5.53;;
5157;SDS011;2598;52.364;9.772;2023-05-10T05:45:54;10.73;;;5.73;;
5157;SDS011;2598;52.364;9.772;2023-05-10T05:48:22;14.40;;;6.07;;
5157;SDS011;2598;52.364;9.772;2023-05-10T05:50:48;13.50;;;5.90;;
5157;SDS011;2598;52.364;9.772;2023-05-10T05:53:14;9.57;;;5.97;;
5157;SDS011;2598;52.364;9.772;2023-05-10T05:55:40;11.77;;;6.10;;
5157;SDS011;2598;52.364;9.772;2023-05-10T05:58:16;12.63;;;5.80;;
5157;SDS011;2598;52.364;9.772;2023-05-10T06:00:41;12.20;;;5.70;;
5157;SDS011;2598;52.364;9.772;2023-05-10T06:03:07;13.93;;;6.57;;
5157;SDS011;2598;52.364;9.772;2023-05-10T06:05:33;10.60;;;6.00;;
5157;SDS011;2598;52.364;9.772;2023-05-10T06:07:59;11.03;;;5.70;;
5157;SDS011;2598;52.364;9.772;2023-05-10T06:10:26;12.20;;;6.50;;
5157;SDS011;2598;52.364;9.772;2023-05-10T06:12:51;10.10;;;6.17;;
5157;SDS011;2598;52.364;9.772;2023-05-10T06:15:18;11.60;;;6.10;;
5157;SDS011;2598;52.364;9.772;2023-05-10T06:17:44;11.70;;;6.30;;
5157;SDS011;2598;52.364;9.772;2023-05-10T06:20:10;14.43;;;7.07;;
5157;SDS011;2598;52.364;9.772;2023-05-10T06:22:36;12.30;;;5.93;;
5157;SDS011;2598;52.364;9.772;2023-05-10T06:25:02;10.70;;;6.63;;
5157;SDS011;2598;52.364;9.772;2023-05-10T06:27:28;9.93;;;6.30;;
5157;SDS011;2598;52.364;9.772;2023-05-10T06:29:54;11.37;;;5.30;;
5157;SDS011;2598;52.364;9.772;2023-05-10T06:32:20;10.20;;;5.70;;
5157;SDS011;2598;52.364;9.772;2023-05-10T06:34:46;9.67;;;5.47;;
5157;SDS011;2598;52.364;9.772;2023-05-10T06:37:11;9.60;;;5.17;;
5157;SDS011;2598;52.364;9.772;2023-05-10T06:39:37;8.77;;;5.90;;
5157;SDS011;2598;52.364;9.772;2023-05-10T06:42:03;8.80;;;5.20;;
5157;SDS011;2598;52.364;9.772;2023-05-10T06:44:30;9.63;;;5.67;;
5157;SDS011;2598;52.364;9.772;2023-05-10T06:46:56;20.93;;;5.63;;
5157;SDS011;2598;52.364;9.772;2023-05-10T06:49:21;11.70;;;5.70;;
5157;SDS011;2598;52.364;9.772;2023-05-10T06:51:47;10.77;;;5.40;;
5157;SDS011;2598;52.364;9.772;2023-05-10T06:54:13;11.57;;;5.53;;
5157;SDS011;2598;52.364;9.772;2023-05-10T06:56:39;8.70;;;5.10;;
5157;SDS011;2598;52.364;9.772;2023-05-10T06:59:05;16.03;;;6.10;;
5157;SDS011;2598;52.364;9.772;2023-05-10T07:01:32;10.03;;;5.10;;
5157;SDS011;2598;52.364;9.772;2023-05-10T07:03:58;10.50;;;5.63;;
5157;SDS011;2598;52.364;9.772;2023-05-10T07:06:24;15.30;;;5.47;;
5157;SDS011;2598;52.364;9.772;2023-05-10T07:08:49;7.57;;;5.00;;
5157;SDS011;2598;52.364;9.772;2023-05-10T07:11:15;9.67;;;5.53;;
5157;SDS011;2598;52.364;9.772;2023-05-10T07:13:41;11.00;;;5.73;;
5157;SDS011;2598;52.364;9.772;2023-05-10T07:16:09;9.77;;;5.77;;
5157;SDS011;2598;52.364;9.772;2023-05-10T07:18:35;8.40;;;5.30;;
5157;SDS011;2598;52.364;9.772;2023-05-10T07:21:01;10.47;;;5.57;;
5157;SDS011;2598;52.364;9.772;2023-05-10T07:23:27;11.03;;;5.70;;
5157;SDS011;2598;52.364;9.772;2023-05-10T07:25:54;15.33;;;5.47;;
5157;SDS011;2598;52.364;9.772;2023-05-10T07:28:22;10.27;;;5.00;;
5157;SDS011;2598;52.364;9.772;2023-05-10T07:30:48;9.00;;;5.37;;
5157;SDS011;2598;52.364;9.772;2023-05-10T07:33:14;9.63;;;5.47;;
5157;SDS011;2598;52.364;9.772;2023-05-10T07:35:40;8.20;;;5.43;;
5157;SDS011;2598;52.364;9.772;2023-05-10T07:38:06;10.43;;;5.37;;
5157;SDS011;2598;52.364;9.772;2023-05-10T07:40:32;9.30;;;5.00;;
5157;SDS011;2598;52.364;9.772;2023-05-10T07:42:58;9.53;;;5.57;;
5157;SDS011;2598;52.364;9.772;2023-05-10T07:45:26;7.90;;;4.83;;
5157;SDS011;2598;52.364;9.772;2023-05-10T07:47:52;8.73;;;5.20;;
5157;SDS011;2598;52.364;9.772;2023-05-10T07:50:18;9.57;;;6.10;;
5157;SDS011;2598;52.364;9.772;2023-05-10T07:52:45;8.53;;;5.47;;
5157;SDS011;2598;52.364;9.772;2023-05-10T07:55:11;8.77;;;5.83;;
5157;SDS011;2598;52.364;9.772;2023-05-10T07:57:37;10.07;;;5.73;;
5157;SDS011;2598;52.364;9.772;2023-05-10T08:00:04;8.37;;;5.47;;
5157;SDS011;2598;52.364;9.772;2023-05-10T08:02:30;9.10;;;5.87;;
5157;SDS011;2598;52.364;9.772;2023-05-10T08:04:56;10.67;;;5.00;;
5157;SDS011;2598;52.364;9.772;2023-05-10T08:07:22;10.53;;;5.70;;
5157;SDS011;2598;52.364;9.772;2023-05-10T08:09:49;8.07;;;5.53;;
5157;SDS011;2598;52.364;9.772;2023-05-10T08:12:15;8.50;;;4.70;;
5157;SDS011;2598;52.364;9.772;2023-05-10T08:14:42;8.33;;;4.90;;
5157;SDS011;2598;52.364;9.772;2023-05-10T08:17:08;7.80;;;4.77;;
5157;SDS011;2598;52.364;9.772;2023-05-10T08:19:34;6.97;;;4.37;;
5157;SDS011;2598;52.364;9.772;2023-05-10T08:22:00;8.07;;;3.80;;
5157;SDS011;2598;52.364;9.772;2023-05-10T08:24:26;5.40;;;3.00;;
5157;SDS011;2598;52.364;9.772;2023-05-10T08:26:52;6.50;;;4.20;;
5157;SDS011;2598;52.364;9.772;2023-05-10T08:29:18;6.30;;;3.00;;
5157;SDS011;2598;52.364;9.772;2023-05-10T08:31:44;5.10;;;2.60;;
5157;SDS011;2598;52.364;9.772;2023-05-10T08:34:10;5.13;;;2.27;;
5157;SDS011;2598;52.364;9.772;2023-05-10T08:36:36;4.93;;;2.10;;
5157;SDS011;2598;52.364;9.772;2023-05-10T08:39:02;4.27;;;1.80;;
5157;SDS011;2598;52.364;9.772;2023-05-10T08:41:28;4.07;;;1.20;;
5157;SDS011;2598;52.364;9.772;2023-05-10T08:43:55;4.90;;;1.73;;
5157;SDS011;2598;52.364;9.772;2023-05-10T08:46:21;4.60;;;1.80;;
5157;SDS011;2598;52.364;9.772;2023-05-10T08:48:48;3.60;;;1.30;;
5157;SDS011;2598;52.364;9.772;2023-05-10T08:51:17;6.00;;;3.00;;
5157;SDS011;2598;52.364;9.772;2023-05-10T08:53:44;5.03;;;2.10;;
5157;SDS011;2598;52.364;9.772;2023-05-10T08:56:10;3.30;;;1.10;;
5157;SDS011;2598;52.364;9.772;2023-05-10T08:58:37;3.90;;;1.40;;
5157;SDS011;2598;52.364;9.772;2023-05-10T09:01:03;3.93;;;1.53;;
5157;SDS011;2598;52.364;9.772;2023-05-10T09:03:30;4.27;;;1.67;;
5157;SDS011;2598;52.364;9.772;2023-05-10T09:05:57;4.20;;;1.80;;
5157;SDS011;2598;52.364;9.772;2023-05-10T09:08:23;3.97;;;1.30;;
5157;SDS011;2598;52.364;9.772;2023-05-10T09:10:50;6.93;;;1.73;;
5157;SDS011;2598;52.364;9.772;2023-05-10T09:13:17;4.50;;;1.90;;
5157;SDS011;2598;52.364;9.772;2023-05-10T09:15:44;4.20;;;1.67;;
5157;SDS011;2598;52.364;9.772;2023-05-10T09:18:10;4.17;;;1.83;;
5157;SDS011;2598;52.364;9.772;2023-05-10T09:20:36;4.73;;;1.80;;
5157;SDS011;2598;52.364;9.772;2023-05-10T09:23:02;4.73;;;1.80;;
5157;SDS011;2598;52.364;9.772;2023-05-10T09:25:28;5.37;;;2.73;;
5157;SDS011;2598;52.364;9.772;2023-05-10T09:27:54;4.63;;;2.13;;
5157;SDS011;2598;52.364;9.772;2023-05-10T09:30:24;4.57;;;2.17;;
5157;SDS011;2598;52.364;9.772;2023-05-10T09:32:50;4.30;;;1.80;;
5157;SDS011;2598;52.364;9.772;2023-05-10T09:35:17;3.73;;;1.50;;
5157;SDS011;2598;52.364;9.772;2023-05-10T09:37:45;4.40;;;1.80;;
5157;SDS011;2598;52.364;9.772;2023-05-10T09:40:16;4.50;;;1.80;;
5157;SDS011;2598;52.364;9.772;2023-05-10T09:42:43;4.30;;;2.20;;
5157;SDS011;2598;52.364;9.772;2023-05-10T09:45:16;5.53;;;2.30;;
5157;SDS011;2598;52.364;9.772;2023-05-10T09:47:41;4.83;;;2.20;;
5157;SDS011;2598;52.364;9.772;2023-05-10T09:50:07;5.07;;;2.10;;
5157;SDS011;2598;52.364;9.772;2023-05-10T09:52:47;4.63;;;1.80;;
5157;SDS011;2598;52.364;9.772;2023-05-10T09:55:13;5.77;;;2.43;;
5157;SDS011;2598;52.364;9.772;2023-05-10T09:57:39;6.47;;;1.90;;
5157;SDS011;2598;52.364;9.772;2023-05-10T10:00:05;5.60;;;2.27;;
5157;SDS011;2598;52.364;9.772;2023-05-10T10:02:31;4.40;;;1.87;;
5157;SDS011;2598;52.364;9.772;2023-05-10T10:04:58;5.00;;;2.40;;
5157;SDS011;2598;52.364;9.772;2023-05-10T10:07:25;4.57;;;1.70;;
5157;SDS011;2598;52.364;9.772;2023-05-10T10:09:51;4.93;;;1.90;;
5157;SDS011;2598;52.364;9.772;2023-05-10T10:12:17;5.07;;;2.00;;
5157;SDS011;2598;52.364;9.772;2023-05-10T10:14:44;5.00;;;1.93;;
5157;SDS011;2598;52.364;9.772;2023-05-10T10:17:10;5.20;;;2.10;;
5157;SDS011;2598;52.364;9.772;2023-05-10T10:19:37;5.37;;;2.30;;
5157;SDS011;2598;52.364;9.772;2023-05-10T10:22:03;5.57;;;2.83;;
5157;SDS011;2598;52.364;9.772;2023-05-10T10:24:29;7.97;;;3.00;;
5157;SDS011;2598;52.364;9.772;2023-05-10T10:26:56;4.53;;;2.10;;
5157;SDS011;2598;52.364;9.772;2023-05-10T10:29:47;4.73;;;2.50;;
5157;SDS011;2598;52.364;9.772;2023-05-10T10:32:26;5.30;;;2.20;;
5157;SDS011;2598;52.364;9.772;2023-05-10T10:34:53;5.43;;;2.37;;
5157;SDS011;2598;52.364;9.772;2023-05-10T10:37:21;6.37;;;2.93;;
5157;SDS011;2598;52.364;9.772;2023-05-10T10:39:48;4.60;;;2.53;;
5157;SDS011;2598;52.364;9.772;2023-05-10T10:42:14;6.47;;;2.50;;
5157;SDS011;2598;52.364;9.772;2023-05-10T10:44:40;6.13;;;2.13;;
5157;SDS011;2598;52.364;9.772;2023-05-10T10:55:07;5.83;;;2.57;;
5157;SDS011;2598;52.364;9.772;2023-05-10T11:00:19;6.70;;;2.40;;
5157;SDS011;2598;52.364;9.772;2023-05-10T11:02:46;6.33;;;2.80;;
5157;SDS011;2598;52.364;9.772;2023-05-10T11:05:24;5.80;;;2.20;;
5157;SDS011;2598;52.364;9.772;2023-05-10T11:07:51;6.03;;;2.33;;
5157;SDS011;2598;52.364;9.772;2023-05-10T11:10:19;4.70;;;2.30;;
5157;SDS011;2598;52.364;9.772;2023-05-10T11:13:01;4.23;;;2.00;;
5157;SDS011;2598;52.364;9.772;2023-05-10T11:15:34;5.53;;;2.00;;
5157;SDS011;2598;52.364;9.772;2023-05-10T11:20:52;5.80;;;2.43;;
5157;SDS011;2598;52.364;9.772;2023-05-10T11:23:18;5.57;;;2.20;;
5157;SDS011;2598;52.364;9.772;2023-05-10T11:25:45;6.10;;;2.17;;
5157;SDS011;2598;52.364;9.772;2023-05-10T11:28:11;6.30;;;2.27;;
5157;SDS011;2598;52.364;9.772;2023-05-10T11:30:41;5.40;;;2.30;;
5157;SDS011;2598;52.364;9.772;2023-05-10T11:33:07;6.00;;;2.73;;
5157;SDS011;2598;52.364;9.772;2023-05-10T11:35:37;8.50;;;2.77;;
5157;SDS011;2598;52.364;9.772;2023-05-10T11:38:07;6.93;;;3.13;;
5157;SDS011;2598;52.364;9.772;2023-05-10T11:40:34;6.37;;;2.60;;
5157;SDS011;2598;52.364;9.772;2023-05-10T11:43:00;5.90;;;2.57;;
5157;SDS011;2598;52.364;9.772;2023-05-10T11:45:26;4.50;;;2.20;;
5157;SDS011;2598;52.364;9.772;2023-05-10T11:47:53;5.53;;;2.70;;
5157;SDS011;2598;52.364;9.772;2023-05-10T11:50:19;5.60;;;2.80;;
5157;SDS011;2598;52.364;9.772;2023-05-10T11:52:45;5.87;;;2.73;;
5157;SDS011;2598;52.364;9.772;2023-05-10T11:55:15;5.67;;;2.83;;
5157;SDS011;2598;52.364;9.772;2023-05-10T11:57:41;6.80;;;3.50;;
5157;SDS011;2598;52.364;9.772;2023-05-10T12:00:09;5.63;;;2.83;;
5157;SDS011;2598;52.364;9.772;2023-05-10T12:02:36;11.33;;;3.67;;
5157;SDS011;2598;52.364;9.772;2023-05-10T12:05:02;6.47;;;3.40;;
5157;SDS011;2598;52.364;9.772;2023-05-10T12:07:28;7.10;;;3.27;;
5157;SDS011;2598;52.364;9.772;2023-05-10T12:10:04;6.30;;;3.13;;
5157;SDS011;2598;52.364;9.772;2023-05-10T12:12:37;6.23;;;3.10;;
5157;SDS011;2598;52.364;9.772;2023-05-10T12:15:04;10.50;;;3.17;;
5157;SDS011;2598;52.364;9.772;2023-05-10T12:17:30;6.63;;;3.50;;
5157;SDS011;2598;52.364;9.772;2023-05-10T12:20:12;11.63;;;4.60;;
5157;SDS011;2598;52.364;9.772;2023-05-10T12:22:39;6.03;;;3.27;;
5157;SDS011;2598;52.364;9.772;2023-05-10T12:25:05;7.27;;;3.90;;
5157;SDS011;2598;52.364;9.772;2023-05-10T12:27:32;7.53;;;3.97;;
5157;SDS011;2598;52.364;9.772;2023-05-10T12:29:59;9.20;;;3.17;;
5157;SDS011;2598;52.364;9.772;2023-05-10T12:32:40;8.23;;;4.03;;
5157;SDS011;2598;52.364;9.772;2023-05-10T12:35:07;7.40;;;3.40;;
5157;SDS011;2598;52.364;9.772;2023-05-10T12:37:33;8.33;;;3.50;;
5157;SDS011;2598;52.364;9.772;2023-05-10T12:40:04;8.20;;;3.53;;
5157;SDS011;2598;52.364;9.772;2023-05-10T12:42:30;7.68;;;3.90;;
5157;SDS011;2598;52.364;9.772;2023-05-10T12:44:57;7.60;;;3.60;;
5157;SDS011;2598;52.364;9.772;2023-05-10T12:47:23;6.87;;;3.70;;
5157;SDS011;2598;52.364;9.772;2023-05-10T12:49:48;6.90;;;3.70;;
5157;SDS011;2598;52.364;9.772;2023-05-10T12:52:16;7.90;;;3.80;;
5157;SDS011;2598;52.364;9.772;2023-05-10T12:54:41;6.57;;;3.53;;
5157;SDS011;2598;52.364;9.772;2023-05-10T12:57:07;6.20;;;3.30;;
5157;SDS011;2598;52.364;9.772;2023-05-10T12:59:33;6.77;;;3.77;;
5157;SDS011;2598;52.364;9.772;2023-05-10T13:01:59;6.50;;;3.20;;
5157;SDS011;2598;52.364;9.772;2023-05-10T13:04:25;7.03;;;3.40;;
5157;SDS011;2598;52.364;9.772;2023-05-10T13:06:51;8.10;;;3.80;;
5157;SDS011;2598;52.364;9.772;2023-05-10T13:09:17;5.50;;;2.80;;
5157;SDS011;2598;52.364;9.772;2023-05-10T13:11:43;8.40;;;3.03;;
5157;SDS011;2598;52.364;9.772;2023-05-10T13:14:10;6.40;;;3.90;;
5157;SDS011;2598;52.364;9.772;2023-05-10T13:16:36;6.50;;;3.33;;
5157;SDS011;2598;52.364;9.772;2023-05-10T13:19:02;9.23;;;2.87;;
5157;SDS011;2598;52.364;9.772;2023-05-10T13:21:28;6.53;;;2.80;;
5157;SDS011;2598;52.364;9.772;2023-05-10T13:23:54;11.80;;;2.90;;
5157;SDS011;2598;52.364;9.772;2023-05-10T13:26:20;5.90;;;2.50;;
5157;SDS011;2598;52.364;9.772;2023-05-10T13:28:46;5.30;;;2.87;;
5157;SDS011;2598;52.364;9.772;2023-05-10T13:31:13;6.37;;;2.87;;
5157;SDS011;2598;52.364;9.772;2023-05-10T13:33:39;7.67;;;3.20;;
5157;SDS011;2598;52.364;9.772;2023-05-10T13:36:06;6.67;;;3.23;;
5157;SDS011;2598;52.364;9.772;2023-05-10T13:38:32;5.83;;;2.73;;
5157;SDS011;2598;52.364;9.772;2023-05-10T13:40:57;8.37;;;3.03;;
5157;SDS011;2598;52.364;9.772;2023-05-10T13:43:23;6.57;;;3.10;;
5157;SDS011;2598;52.364;9.772;2023-05-10T13:45:49;6.13;;;2.93;;
5157;SDS011;2598;52.364;9.772;2023-05-10T13:48:15;5.17;;;2.83;;
5157;SDS011;2598;52.364;9.772;2023-05-10T13:50:41;7.43;;;3.03;;
5157;SDS011;2598;52.364;9.772;2023-05-10T13:53:07;6.37;;;3.13;;
5157;SDS011;2598;52.364;9.772;2023-05-10T13:55:33;6.00;;;2.60;;
5157;SDS011;2598;52.364;9.772;2023-05-10T13:57:59;5.43;;;2.93;;
5157;SDS011;2598;52.364;9.772;2023-05-10T14:00:25;7.33;;;3.77;;
5157;SDS011;2598;52.364;9.772;2023-05-10T14:02:51;8.23;;;3.60;;
5157;SDS011;2598;52.364;9.772;2023-05-10T14:05:17;11.67;;;3.47;;
5157;SDS011;2598;52.364;9.772;2023-05-10T14:07:43;6.93;;;3.60;;
5157;SDS011;2598;52.364;9.772;2023-05-10T14:10:09;6.43;;;2.70;;
5157;SDS011;2598;52.364;9.772;2023-05-10T14:12:35;7.70;;;2.77;;
5157;SDS011;2598;52.364;9.772;2023-05-10T14:15:01;8.87;;;3.40;;
5157;SDS011;2598;52.364;9.772;2023-05-10T14:17:27;5.70;;;2.40;;
5157;SDS011;2598;52.364;9.772;2023-05-10T14:19:53;5.80;;;2.20;;
5157;SDS011;2598;52.364;9.772;2023-05-10T14:22:19;5.30;;;2.33;;
5157;SDS011;2598;52.364;9.772;2023-05-10T14:24:45;5.00;;;2.47;;
5157;SDS011;2598;52.364;9.772;2023-05-10T14:27:12;6.17;;;2.53;;
5157;SDS011;2598;52.364;9.772;2023-05-10T14:29:38;5.90;;;2.47;;
5157;SDS011;2598;52.364;9.772;2023-05-10T14:32:03;5.83;;;3.00;;
5157;SDS011;2598;52.364;9.772;2023-05-10T14:34:30;6.00;;;2.60;;
5157;SDS011;2598;52.364;9.772;2023-05-10T14:36:56;9.30;;;5.20;;
5157;SDS011;2598;52.364;9.772;2023-05-10T14:39:23;11.77;;;6.50;;
5157;SDS011;2598;52.364;9.772;2023-05-10T14:41:49;11.80;;;6.87;;
5157;SDS011;2598;52.364;9.772;2023-05-10T14:44:16;16.00;;;5.90;;
5157;SDS011;2598;52.364;9.772;2023-05-10T14:46:42;11.40;;;6.53;;
5157;SDS011;2598;52.364;9.772;2023-05-10T14:49:08;9.00;;;5.80;;
5157;SDS011;2598;52.364;9.772;2023-05-10T14:51:34;17.80;;;7.50;;
5157;SDS011;2598;52.364;9.772;2023-05-10T14:54:01;12.53;;;7.13;;
5157;SDS011;2598;52.364;9.772;2023-05-10T14:56:27;12.63;;;6.80;;
5157;SDS011;2598;52.364;9.772;2023-05-10T14:58:53;11.97;;;7.20;;
5157;SDS011;2598;52.364;9.772;2023-05-10T15:01:19;11.57;;;7.77;;
5157;SDS011;2598;52.364;9.772;2023-05-10T15:03:45;13.60;;;8.03;;
5157;SDS011;2598;52.364;9.772;2023-05-10T15:06:13;12.87;;;7.77;;
5157;SDS011;2598;52.364;9.772;2023-05-10T15:08:39;14.17;;;7.90;;
5157;SDS011;2598;52.364;9.772;2023-05-10T15:11:05;15.87;;;9.60;;
5157;SDS011;2598;52.364;9.772;2023-05-10T15:13:31;14.83;;;7.90;;
5157;SDS011;2598;52.364;9.772;2023-05-10T15:15:57;14.97;;;9.10;;
5157;SDS011;2598;52.364;9.772;2023-05-10T15:18:23;13.53;;;8.27;;
5157;SDS011;2598;52.364;9.772;2023-05-10T15:20:49;15.67;;;9.60;;
5157;SDS011;2598;52.364;9.772;2023-05-10T15:23:15;14.20;;;8.67;;
5157;SDS011;2598;52.364;9.772;2023-05-10T15:25:41;17.77;;;9.60;;
5157;SDS011;2598;52.364;9.772;2023-05-10T15:28:07;17.87;;;9.80;;
5157;SDS011;2598;52.364;9.772;2023-05-10T15:30:33;14.47;;;9.17;;
5157;SDS011;2598;52.364;9.772;2023-05-10T15:32:59;14.70;;;8.80;;
5157;SDS011;2598;52.364;9.772;2023-05-10T15:35:25;15.10;;;9.03;;